Terminal Aerodrome Forecast
Issued by NWS Louisville, KY

Home | Current Version | Previous Version | Text Only | Print | Product List | Glossary On
Versions: 1 2 3 4 5 6 7 8 9 10 11 12 13 14 15
466
FTUS43 KLMK 241140
TAFLEX
TAF
KLEX 241140Z 2412/2512 30007KT 5SM BR OVC004
     FM241400 27007KT P6SM OVC008
     FM241700 27007KT P6SM OVC015
     FM242000 21006KT P6SM BKN025
     FM250000 15005KT P6SM FEW035
     FM250900 16009KT P6SM BKN035=

USA.gov is the U.S. government's official web portal to all federal, state and local government web resources and services.